RYR61SV EIDW-EGKK
Flight info
| Callsign | RYR61SV |
|---|---|
| Flight time | N/A |
| Altitude | 33000 |
| Route | ENDEQ3J ENDEQ Q36 EPOXI L15 KEPAD L151 DISIT |
| Aircraft | B738/M-SDE2E3FGHIRWXY/LB1 |
Departure
| Time | 2026-05-07 16:12 |
|---|---|
| Airport | Dublin Airport (EIDW) |
Arrival
| Time | N/A |
|---|---|
| Airport | London Gatwick Airport (EGKK) |
| Time | Latitude | Longitude | Altitude | Speed | Heading |
|---|---|---|---|---|---|
| 2026-05-07 15:39 | 53.42767 | -6.24740 | 210 ft | 0 kts | 2° |
| 2026-05-07 15:57 | 53.42764 | -6.24740 | 210 ft | 1 kts | 2° |
| 2026-05-07 15:57 | 53.42758 | -6.24741 | 210 ft | 1 kts | 2° |
| 2026-05-07 15:57 | 53.42750 | -6.24741 | 214 ft | 1 kts | 2° |
| 2026-05-07 15:57 | 53.42741 | -6.24742 | 212 ft | 1 kts | 2° |
| 2026-05-07 15:58 | 53.42733 | -6.24742 | 210 ft | 1 kts | 340° |
| 2026-05-07 15:58 | 53.42725 | -6.24736 | 210 ft | 1 kts | 307° |
| 2026-05-07 15:58 | 53.42721 | -6.24723 | 217 ft | 1 kts | 263° |
| 2026-05-07 15:58 | 53.42723 | -6.24712 | 215 ft | 0 kts | 248° |
| 2026-05-07 16:04 | 53.42722 | -6.24718 | 210 ft | 3 kts | 248° |
| 2026-05-07 16:04 | 53.42699 | -6.24782 | 220 ft | 9 kts | 236° |
| 2026-05-07 16:04 | 53.42663 | -6.24897 | 217 ft | 12 kts | 273° |
| 2026-05-07 16:04 | 53.42731 | -6.24994 | 215 ft | 14 kts | 329° |
| 2026-05-07 16:05 | 53.42776 | -6.25129 | 210 ft | 14 kts | 285° |
| 2026-05-07 16:05 | 53.42825 | -6.25264 | 210 ft | 14 kts | 329° |
| 2026-05-07 16:05 | 53.42914 | -6.25330 | 212 ft | 14 kts | 336° |
| 2026-05-07 16:05 | 53.43008 | -6.25398 | 210 ft | 15 kts | 336° |
| 2026-05-07 16:06 | 53.43103 | -6.25466 | 214 ft | 15 kts | 336° |
| 2026-05-07 16:06 | 53.43198 | -6.25535 | 212 ft | 15 kts | 336° |
| 2026-05-07 16:06 | 53.43291 | -6.25603 | 210 ft | 15 kts | 336° |
| 2026-05-07 16:06 | 53.43393 | -6.25629 | 216 ft | 15 kts | 39° |
| 2026-05-07 16:07 | 53.43401 | -6.25458 | 219 ft | 15 kts | 95° |
| 2026-05-07 16:07 | 53.43392 | -6.25286 | 210 ft | 14 kts | 95° |
| 2026-05-07 16:07 | 53.43382 | -6.25113 | 214 ft | 15 kts | 95° |
| 2026-05-07 16:07 | 53.43371 | -6.24931 | 214 ft | 16 kts | 95° |
| 2026-05-07 16:08 | 53.43362 | -6.24744 | 214 ft | 14 kts | 95° |
| 2026-05-07 16:08 | 53.43360 | -6.24612 | 218 ft | 5 kts | 78° |
| 2026-05-07 16:08 | 53.43382 | -6.24562 | 214 ft | 6 kts | 19° |
| 2026-05-07 16:08 | 53.43388 | -6.24561 | 213 ft | 1 kts | 7° |
| 2026-05-07 16:09 | 53.43420 | -6.24557 | 215 ft | 8 kts | 4° |
| 2026-05-07 16:09 | 53.43491 | -6.24548 | 217 ft | 12 kts | 358° |
| 2026-05-07 16:09 | 53.43528 | -6.24643 | 216 ft | 0 kts | 275° |
| 2026-05-07 16:11 | 53.43530 | -6.24683 | 215 ft | 14 kts | 275° |
| 2026-05-07 16:12 | 53.43559 | -6.25207 | 210 ft | 79 kts | 275° |
| 2026-05-07 16:12 | 53.43627 | -6.26474 | 211 ft | 135 kts | 274° |
| 2026-05-07 16:12 | 53.43720 | -6.28249 | 382 ft | 163 kts | 274° |
| 2026-05-07 16:12 | 53.43858 | -6.30084 | 1096 ft | 160 kts | 274° |
| 2026-05-07 16:13 | 53.44156 | -6.31944 | 1717 ft | 172 kts | 290° |
| 2026-05-07 16:13 | 53.44921 | -6.33608 | 2184 ft | 197 kts | 312° |
| 2026-05-07 16:13 | 53.45995 | -6.35253 | 2553 ft | 218 kts | 322° |
| 2026-05-07 16:13 | 53.47483 | -6.35901 | 3114 ft | 229 kts | 4° |
| 2026-05-07 16:14 | 53.49065 | -6.35568 | 3765 ft | 234 kts | 4° |
| 2026-05-07 16:14 | 53.50671 | -6.35126 | 4581 ft | 235 kts | 24° |
| 2026-05-07 16:14 | 53.51936 | -6.33447 | 5393 ft | 236 kts | 56° |
| 2026-05-07 16:14 | 53.52599 | -6.30841 | 5847 ft | 257 kts | 84° |
| 2026-05-07 16:15 | 53.52633 | -6.27674 | 6314 ft | 277 kts | 94° |
| 2026-05-07 16:15 | 53.52556 | -6.24419 | 7133 ft | 281 kts | 95° |
| 2026-05-07 16:15 | 53.52479 | -6.21113 | 7937 ft | 286 kts | 94° |
| 2026-05-07 16:15 | 53.52412 | -6.17796 | 8623 ft | 289 kts | 94° |
| 2026-05-07 16:16 | 53.52350 | -6.14413 | 8926 ft | 292 kts | 94° |
| 2026-05-07 16:16 | 53.52290 | -6.10929 | 8925 ft | 295 kts | 94° |
| 2026-05-07 16:16 | 53.52224 | -6.07537 | 8935 ft | 292 kts | 96° |
| 2026-05-07 16:16 | 53.51903 | -6.04191 | 8940 ft | 288 kts | 105° |
| 2026-05-07 16:17 | 53.51405 | -6.00936 | 8942 ft | 287 kts | 107° |
| 2026-05-07 16:17 | 53.50887 | -5.97680 | 9026 ft | 292 kts | 107° |
| 2026-05-07 16:17 | 53.50373 | -5.94335 | 9732 ft | 296 kts | 106° |
| 2026-05-07 16:17 | 53.49871 | -5.90960 | 10394 ft | 304 kts | 106° |
| 2026-05-07 16:18 | 53.49345 | -5.87375 | 10574 ft | 328 kts | 106° |
| 2026-05-07 16:18 | 53.48793 | -5.83558 | 11016 ft | 341 kts | 105° |
| 2026-05-07 16:18 | 53.48284 | -5.79635 | 11730 ft | 345 kts | 104° |
| 2026-05-07 16:18 | 53.47805 | -5.75723 | 12521 ft | 348 kts | 104° |
| 2026-05-07 16:19 | 53.47317 | -5.71717 | 13260 ft | 353 kts | 104° |
| 2026-05-07 16:19 | 53.46819 | -5.67660 | 14009 ft | 357 kts | 104° |
| 2026-05-07 16:19 | 53.46308 | -5.63550 | 14725 ft | 361 kts | 104° |
| 2026-05-07 16:19 | 53.45790 | -5.59412 | 15472 ft | 365 kts | 104° |
| 2026-05-07 16:20 | 53.45262 | -5.55230 | 16208 ft | 368 kts | 104° |
| 2026-05-07 16:20 | 53.44727 | -5.51004 | 16939 ft | 372 kts | 103° |
| 2026-05-07 16:20 | 53.44355 | -5.46659 | 17649 ft | 378 kts | 96° |
| 2026-05-07 16:20 | 53.44233 | -5.42225 | 18342 ft | 383 kts | 93° |
| 2026-05-07 16:21 | 53.44179 | -5.37734 | 18952 ft | 387 kts | 92° |
| 2026-05-07 16:21 | 53.44117 | -5.33205 | 19583 ft | 390 kts | 93° |
| 2026-05-07 16:21 | 53.44027 | -5.28636 | 20204 ft | 393 kts | 94° |
| 2026-05-07 16:21 | 53.43911 | -5.24043 | 20813 ft | 397 kts | 94° |
| 2026-05-07 16:22 | 53.43782 | -5.19459 | 21399 ft | 400 kts | 94° |
| 2026-05-07 16:22 | 53.43647 | -5.14771 | 21987 ft | 404 kts | 94° |
| 2026-05-07 16:22 | 53.43510 | -5.10055 | 22572 ft | 407 kts | 94° |
| 2026-05-07 16:22 | 53.43371 | -5.05286 | 23151 ft | 411 kts | 94° |
| 2026-05-07 16:23 | 53.43230 | -5.00477 | 23686 ft | 414 kts | 94° |
| 2026-05-07 16:23 | 53.43088 | -4.95644 | 24174 ft | 417 kts | 94° |
| 2026-05-07 16:23 | 53.42943 | -4.90780 | 24698 ft | 418 kts | 94° |
| 2026-05-07 16:23 | 53.42794 | -4.85905 | 25196 ft | 420 kts | 94° |
| 2026-05-07 16:24 | 53.42635 | -4.81004 | 25668 ft | 422 kts | 94° |
| 2026-05-07 16:24 | 53.42467 | -4.76076 | 26138 ft | 424 kts | 94° |
| 2026-05-07 16:24 | 53.42294 | -4.71123 | 26594 ft | 426 kts | 94° |
| 2026-05-07 16:24 | 53.42118 | -4.66147 | 27039 ft | 429 kts | 94° |
| 2026-05-07 16:25 | 53.41940 | -4.61160 | 27490 ft | 430 kts | 95° |
| 2026-05-07 16:25 | 53.41761 | -4.56141 | 27940 ft | 432 kts | 94° |
| 2026-05-07 16:25 | 53.41582 | -4.51177 | 28498 ft | 430 kts | 94° |
| 2026-05-07 16:25 | 53.41400 | -4.46184 | 29168 ft | 427 kts | 95° |
| 2026-05-07 16:26 | 53.41217 | -4.41224 | 29806 ft | 424 kts | 95° |
| 2026-05-07 16:26 | 53.41034 | -4.36311 | 30353 ft | 422 kts | 95° |
| 2026-05-07 16:26 | 53.40849 | -4.31411 | 30795 ft | 421 kts | 95° |
| 2026-05-07 16:26 | 53.40725 | -4.28160 | 31066 ft | 421 kts | 95° |
| 2026-05-07 16:27 | 53.40474 | -4.21621 | 31649 ft | 420 kts | 95° |
| 2026-05-07 16:27 | 53.40283 | -4.16737 | 32093 ft | 419 kts | 95° |
| 2026-05-07 16:27 | 53.40092 | -4.11874 | 32512 ft | 418 kts | 95° |
| 2026-05-07 16:27 | 53.39900 | -4.07020 | 32920 ft | 417 kts | 95° |
| 2026-05-07 16:28 | 53.39708 | -4.02215 | 32967 ft | 419 kts | 95° |
| 2026-05-07 16:28 | 53.39317 | -3.92500 | 32982 ft | 417 kts | 95° |
| 2026-05-07 16:29 | 53.38938 | -3.82807 | 32987 ft | 417 kts | 95° |
| 2026-05-07 16:29 | 53.38553 | -3.73123 | 32992 ft | 417 kts | 95° |
| 2026-05-07 16:30 | 53.37853 | -3.63498 | 32984 ft | 415 kts | 106° |
| 2026-05-07 16:30 | 53.35702 | -3.54559 | 32997 ft | 414 kts | 115° |
| 2026-05-07 16:31 | 53.33231 | -3.45856 | 32991 ft | 413 kts | 122° |
| 2026-05-07 16:31 | 53.29659 | -3.38372 | 32999 ft | 412 kts | 133° |
| 2026-05-07 16:32 | 53.25807 | -3.31259 | 32992 ft | 413 kts | 133° |
| 2026-05-07 16:32 | 53.21983 | -3.24080 | 32994 ft | 414 kts | 133° |
| 2026-05-07 16:33 | 53.18160 | -3.16875 | 32991 ft | 415 kts | 133° |
| 2026-05-07 16:33 | 53.14326 | -3.09674 | 32997 ft | 416 kts | 133° |
| 2026-05-07 16:34 | 53.10507 | -3.02525 | 32998 ft | 416 kts | 133° |
| 2026-05-07 16:34 | 53.06654 | -2.95324 | 33000 ft | 417 kts | 133° |
| 2026-05-07 16:35 | 53.02788 | -2.88123 | 32990 ft | 418 kts | 133° |
| 2026-05-07 16:35 | 52.98911 | -2.80926 | 32996 ft | 418 kts | 133° |
| 2026-05-07 16:36 | 52.95029 | -2.73735 | 33023 ft | 418 kts | 133° |
| 2026-05-07 16:36 | 52.91139 | -2.66545 | 33021 ft | 419 kts | 133° |
| 2026-05-07 16:37 | 52.87270 | -2.59415 | 33031 ft | 419 kts | 133° |
| 2026-05-07 16:37 | 52.83365 | -2.52238 | 33024 ft | 419 kts | 133° |
| 2026-05-07 16:38 | 52.79139 | -2.45656 | 33013 ft | 417 kts | 147° |
| 2026-05-07 16:38 | 52.74273 | -2.40434 | 33008 ft | 416 kts | 148° |
| 2026-05-07 16:39 | 52.69419 | -2.35210 | 33013 ft | 417 kts | 148° |
| 2026-05-07 16:39 | 52.64631 | -2.29969 | 32996 ft | 411 kts | 148° |
| 2026-05-07 16:40 | 52.59946 | -2.24811 | 33009 ft | 402 kts | 148° |
| 2026-05-07 16:40 | 52.55281 | -2.19688 | 32820 ft | 406 kts | 148° |
| 2026-05-07 16:40 | 52.52945 | -2.17127 | 32532 ft | 401 kts | 148° |
| 2026-05-07 16:41 | 52.50629 | -2.14593 | 32157 ft | 397 kts | 148° |
| 2026-05-07 16:41 | 52.48341 | -2.12092 | 31807 ft | 394 kts | 148° |
| 2026-05-07 16:41 | 52.46056 | -2.09598 | 31431 ft | 391 kts | 148° |
| 2026-05-07 16:41 | 52.43795 | -2.07134 | 31043 ft | 389 kts | 148° |
| 2026-05-07 16:42 | 52.41542 | -2.04683 | 30612 ft | 389 kts | 149° |
| 2026-05-07 16:42 | 52.39292 | -2.02236 | 30219 ft | 387 kts | 149° |
| 2026-05-07 16:42 | 52.37808 | -2.00622 | 29965 ft | 386 kts | 149° |
| 2026-05-07 16:42 | 52.35580 | -1.98202 | 29563 ft | 382 kts | 149° |
| 2026-05-07 16:43 | 52.32657 | -1.95034 | 28974 ft | 380 kts | 149° |
| 2026-05-07 16:43 | 52.30459 | -1.92655 | 28503 ft | 377 kts | 149° |
| 2026-05-07 16:43 | 52.28986 | -1.91063 | 28109 ft | 374 kts | 149° |
| 2026-05-07 16:43 | 52.26829 | -1.88733 | 27566 ft | 369 kts | 149° |
| 2026-05-07 16:44 | 52.24688 | -1.86434 | 26957 ft | 368 kts | 149° |
| 2026-05-07 16:44 | 52.22573 | -1.84175 | 26369 ft | 367 kts | 149° |
| 2026-05-07 16:44 | 52.20412 | -1.81870 | 25788 ft | 366 kts | 149° |
| 2026-05-07 16:44 | 52.18311 | -1.79629 | 25221 ft | 365 kts | 149° |
| 2026-05-07 16:45 | 52.16191 | -1.77369 | 24671 ft | 364 kts | 149° |
| 2026-05-07 16:45 | 52.14079 | -1.75120 | 24121 ft | 362 kts | 149° |
| 2026-05-07 16:45 | 52.11982 | -1.72890 | 23575 ft | 358 kts | 149° |
| 2026-05-07 16:45 | 52.09902 | -1.70680 | 22935 ft | 355 kts | 148° |
| 2026-05-07 16:46 | 52.07839 | -1.68490 | 22302 ft | 352 kts | 148° |
| 2026-05-07 16:46 | 52.05814 | -1.66340 | 21703 ft | 350 kts | 148° |
| 2026-05-07 16:46 | 52.03786 | -1.64190 | 21111 ft | 347 kts | 148° |
| 2026-05-07 16:46 | 52.01747 | -1.62029 | 20500 ft | 344 kts | 148° |
| 2026-05-07 16:47 | 51.99772 | -1.59939 | 19920 ft | 342 kts | 148° |
| 2026-05-07 16:47 | 51.97779 | -1.57832 | 19354 ft | 340 kts | 148° |
| 2026-05-07 16:47 | 51.95805 | -1.55748 | 18790 ft | 338 kts | 148° |
| 2026-05-07 16:47 | 51.93830 | -1.53663 | 18237 ft | 336 kts | 148° |
| 2026-05-07 16:48 | 51.91881 | -1.51609 | 17606 ft | 334 kts | 148° |
| 2026-05-07 16:48 | 51.89944 | -1.49569 | 17044 ft | 330 kts | 148° |
| 2026-05-07 16:48 | 51.88061 | -1.47589 | 16662 ft | 323 kts | 148° |
| 2026-05-07 16:48 | 51.86181 | -1.45613 | 16363 ft | 320 kts | 148° |
| 2026-05-07 16:49 | 51.84318 | -1.43657 | 16071 ft | 317 kts | 148° |
| 2026-05-07 16:49 | 51.82478 | -1.41726 | 15793 ft | 314 kts | 148° |
| 2026-05-07 16:49 | 51.80653 | -1.39813 | 15521 ft | 312 kts | 148° |
| 2026-05-07 16:49 | 51.78836 | -1.37912 | 15250 ft | 309 kts | 148° |
| 2026-05-07 16:50 | 51.77039 | -1.36034 | 15071 ft | 305 kts | 148° |
| 2026-05-07 16:50 | 51.75270 | -1.34186 | 15016 ft | 299 kts | 148° |
| 2026-05-07 16:50 | 51.73546 | -1.32387 | 15013 ft | 292 kts | 148° |
| 2026-05-07 16:50 | 51.71865 | -1.30632 | 15000 ft | 282 kts | 148° |
| 2026-05-07 16:51 | 51.70256 | -1.28955 | 14998 ft | 269 kts | 148° |
| 2026-05-07 16:51 | 51.68716 | -1.27350 | 15000 ft | 258 kts | 148° |
| 2026-05-07 16:51 | 51.67229 | -1.25803 | 15006 ft | 252 kts | 148° |
| 2026-05-07 16:51 | 51.65741 | -1.24256 | 15038 ft | 260 kts | 148° |
| 2026-05-07 16:52 | 51.64189 | -1.22647 | 15048 ft | 269 kts | 148° |
| 2026-05-07 16:52 | 51.62603 | -1.21001 | 15023 ft | 272 kts | 148° |
| 2026-05-07 16:52 | 51.61039 | -1.19379 | 15019 ft | 270 kts | 148° |
| 2026-05-07 16:52 | 51.59464 | -1.17746 | 15006 ft | 267 kts | 148° |
| 2026-05-07 16:53 | 51.57910 | -1.16136 | 15011 ft | 264 kts | 148° |
| 2026-05-07 16:53 | 51.56364 | -1.14536 | 15020 ft | 265 kts | 148° |
| 2026-05-07 16:53 | 51.54807 | -1.12926 | 15025 ft | 266 kts | 148° |
| 2026-05-07 16:53 | 51.53249 | -1.11317 | 15025 ft | 267 kts | 148° |
| 2026-05-07 16:54 | 51.51683 | -1.09700 | 15032 ft | 268 kts | 148° |
| 2026-05-07 16:54 | 51.50113 | -1.08081 | 15027 ft | 269 kts | 148° |
| 2026-05-07 16:54 | 51.48539 | -1.06459 | 15020 ft | 269 kts | 148° |
| 2026-05-07 16:54 | 51.46981 | -1.04854 | 15021 ft | 270 kts | 148° |
| 2026-05-07 16:55 | 51.45398 | -1.03226 | 15019 ft | 269 kts | 148° |
| 2026-05-07 16:55 | 51.43805 | -1.01588 | 14798 ft | 275 kts | 148° |
| 2026-05-07 16:55 | 51.42185 | -0.99924 | 14575 ft | 277 kts | 148° |
| 2026-05-07 16:55 | 51.40570 | -0.98266 | 14335 ft | 275 kts | 148° |
| 2026-05-07 16:56 | 51.38962 | -0.96617 | 14120 ft | 272 kts | 148° |
| 2026-05-07 16:56 | 51.37384 | -0.94999 | 14058 ft | 268 kts | 148° |
| 2026-05-07 16:56 | 51.33967 | -0.91507 | 14087 ft | 316 kts | 148° |
| 2026-05-07 16:57 | 51.32117 | -0.89614 | 14036 ft | 312 kts | 149° |
| 2026-05-07 16:57 | 51.30337 | -0.87794 | 14025 ft | 303 kts | 149° |
| 2026-05-07 16:57 | 51.28584 | -0.86004 | 14031 ft | 295 kts | 149° |
| 2026-05-07 16:57 | 51.26862 | -0.84249 | 14040 ft | 294 kts | 149° |
| 2026-05-07 16:58 | 51.25120 | -0.82477 | 14053 ft | 299 kts | 149° |
| 2026-05-07 16:58 | 51.23350 | -0.80677 | 14055 ft | 302 kts | 149° |
| 2026-05-07 16:58 | 51.21581 | -0.78880 | 14047 ft | 301 kts | 149° |
| 2026-05-07 16:58 | 51.19815 | -0.77086 | 14042 ft | 300 kts | 149° |